Latest Weather Observations for Port Kembla Harbour

IDN60801

Issued at 3:02 pm EDT Tuesday 28 March 2017 (issued every 30 minutes, with the page automatically refreshed every 10 minutes)

About weather observations | Map of weather stations | Latest weather observations for NSW | Other Formats
Station Details ID: 068253 Name: PORT KEMBLA NTC AWS Lat: -34.47 Lon: 150.91 Height: 0.0 m
Data from the previous 72 hours. | See also: Recent months for locations in New South Wales
Date/Time
EDT
Temp
°C
App
Temp
°C
Dew
Point
°C
Rel
Hum
%
Delta-T
°C
Wind Press
QNH
hPa
Press
MSL
hPa
Rain since
9am
mm
Dir  Spd
km/h
Gust
km/h
Spd
kts
Gust
kts
28/02:30pm 22.5 - - - - S 7 17 4 9 1012.4 1012.4 -
28/02:00pm 22.4 - - - - S 7 15 4 8 1012.7 1012.7 -
28/01:30pm 22.6 - - - - SSW 7 15 4 8 1013.1 1013.1 -
28/01:00pm 22.5 - - - - SSW 9 17 5 9 1013.4 1013.4 -
28/12:30pm 22.1 - - - - SW 11 17 6 9 1013.6 1013.6 -
28/12:00pm 22.1 - - - - SW 11 19 6 10 1013.9 1013.9 -
28/11:30am 21.8 - - - - SW 13 19 7 10 1014.1 1014.1 -
28/11:00am 21.7 - - - - SW 11 20 6 11 1014.2 1014.2 -
28/10:30am 21.6 - - - - SW 11 20 6 11 1014.1 1014.1 -
28/10:00am 21.4 - - - - SW 11 19 6 10 1014.1 1014.1 -
28/09:30am 21.1 - - - - SW 11 20 6 11 1013.9 1013.9 -
28/09:00am 20.8 - - - - SW 13 20 7 11 1013.8 1013.8 -
28/08:30am 20.3 - - - - SW 15 22 8 12 1013.5 1013.5 -
28/08:00am 20.1 - - - - SW 17 26 9 14 1013.4 1013.4 -
28/07:30am 20.1 - - - - SW 17 26 9 14 1013.2 1013.2 -
28/07:00am 20.0 - - - - SW 17 30 9 16 1012.9 1012.9 -
28/06:30am 20.1 - - - - SW 17 24 9 13 1012.7 1012.7 -
28/06:00am 20.3 - - - - SW 19 32 10 17 1012.5 1012.5 -
28/05:30am 20.6 - - - - SSW 20 33 11 18 1012.1 1012.1 -
28/05:00am 20.6 - - - - SW 22 39 12 21 1011.8 1011.8 -
28/04:30am 20.6 - - - - SW 28 41 15 22 1011.6 1011.6 -
28/04:00am 21.1 - - - - SW 22 37 12 20 1011.1 1011.1 -
28/03:30am 21.2 - - - - SSW 15 24 8 13 1010.7 1010.7 -
28/03:00am 21.6 - - - - SSW 15 28 8 15 1010.4 1010.4 -
28/02:30am 22.0 - - - - S 13 28 7 15 1010.3 1010.3 -
28/02:00am 22.6 - - - - S 7 13 4 7 1010.2 1010.2 -
28/01:30am 22.6 - - - - SSE 9 17 5 9 1010.1 1010.1 -
28/01:00am 22.7 - - - - SW 7 17 4 9 1010.2 1010.2 -
28/12:30am 22.9 - - - - NNE 11 15 6 8 1009.4 1009.4 -
28/12:00am 23.1 - - - - N 7 13 4 7 1010.3 1010.3 -
 
Date/Time
EDT
Temp
°C
App
Temp
°C
Dew
Point
°C
Rel
Hum
%
Delta-T
°C
Wind Press
QNH
hPa
Press
MSL
hPa
Rain since
9am
mm
Dir  Spd
km/h
Gust
km/h
Spd
kts
Gust
kts
27/11:30pm 23.1 - - - - NE 7 11 4 6 1010.4 1010.4 -
27/11:00pm 23.2 - - - - NE 7 11 4 6 1010.2 1010.2 -
27/10:30pm 23.2 - - - - NNE 9 13 5 7 1010.5 1010.5 -
27/10:00pm 23.4 - - - - NNE 15 19 8 10 1010.2 1010.2 -
27/09:30pm 23.4 - - - - NNE 13 20 7 11 1010.2 1010.2 -
27/09:00pm 23.4 - - - - NNE 20 26 11 14 1009.5 1009.5 -
27/08:30pm 23.4 - - - - NNE 22 28 12 15 1009.0 1009.0 -
27/08:00pm 23.4 - - - - NNE 26 32 14 17 1008.5 1008.5 -
27/07:30pm 23.5 - - - - NE 30 37 16 20 1008.4 1008.4 -
27/07:00pm 23.5 - - - - NE 32 41 17 22 1008.2 1008.2 -
27/06:30pm 23.5 - - - - NE 28 35 15 19 1008.7 1008.7 -
27/06:00pm 23.5 - - - - NE 30 39 16 21 1008.8 1008.8 -
27/05:30pm 23.6 - - - - NE 32 43 17 23 1008.9 1008.9 -
27/05:00pm 23.6 - - - - NE 30 43 16 23 1009.3 1009.3 -
27/04:30pm 23.5 - - - - NE 32 44 17 24 1009.6 1009.6 -
27/04:00pm 23.5 - - - - NE 32 41 17 22 1010.0 1010.0 -
27/03:30pm 23.5 - - - - NE 33 46 18 25 1010.2 1010.2 -
27/03:00pm 23.5 - - - - NE 33 44 18 24 1010.6 1010.6 -
27/02:30pm 23.5 - - - - NE 32 43 17 23 1011.2 1011.2 -
27/02:00pm 23.6 - - - - NE 30 41 16 22 1011.7 1011.7 -
27/01:30pm 23.6 - - - - NE 28 37 15 20 1012.5 1012.5 -
27/01:00pm 24.2 - - - - NE 20 28 11 15 1013.2 1013.2 -
27/12:30pm 23.8 - - - - NE 22 28 12 15 1013.7 1013.7 -
27/12:00pm 23.7 - - - - NE 22 32 12 17 1014.0 1014.0 -
27/11:30am 23.5 - - - - NE 20 24 11 13 1014.6 1014.6 -
27/11:00am 23.5 - - - - NNE 17 22 9 12 1014.9 1014.9 -
27/10:30am 23.6 - - - - NNE 13 17 7 9 1015.3 1015.3 -
27/10:00am 23.4 - - - - N 15 22 8 12 1015.5 1015.5 -
27/09:30am 22.9 - - - - N 15 26 8 14 1015.7 1015.7 -
27/09:00am 22.3 - - - - NNW 22 28 12 15 1016.1 1016.1 -
27/08:30am 21.9 - - - - NNW 20 28 11 15 1015.9 1015.9 -
27/08:00am 21.8 - - - - NNW 20 26 11 14 1015.6 1015.6 -
27/07:30am 21.6 - - - - NNW 15 20 8 11 1015.5 1015.5 -
27/07:00am 21.7 - - - - N 11 19 6 10 1015.1 1015.1 -
27/06:30am 21.7 - - - - N 9 17 5 9 1015.0 1015.0 -
27/06:00am 22.0 - - - - N 7 11 4 6 1014.9 1014.9 -
27/05:30am 22.1 - - - - N 13 20 7 11 1014.8 1014.8 -
27/05:00am 22.0 - - - - N 11 20 6 11 1014.8 1014.8 -
27/04:30am 22.0 - - - - N 9 15 5 8 1015.1 1015.1 -
27/04:00am 22.0 - - - - N 9 13 5 7 1015.1 1015.1 -
27/03:30am 21.9 - - - - N 7 13 4 7 1015.2 1015.2 -
27/03:00am 22.0 - - - - NNW 9 13 5 7 1015.6 1015.6 -
27/02:30am 22.4 - - - - N 11 17 6 9 1015.8 1015.8 -
27/02:00am 22.7 - - - - N 13 19 7 10 1016.1 1016.1 -
27/01:30am 22.3 - - - - N 9 11 5 6 1016.6 1016.6 -
27/01:00am 22.1 - - - - N 6 9 3 5 1016.8 1016.8 -
27/12:30am 22.5 - - - - N 9 13 5 7 1016.8 1016.8 -
27/12:00am 22.3 - - - - N 7 11 4 6 1016.9 1016.9 -
 
Date/Time
EDT
Temp
°C
App
Temp
°C
Dew
Point
°C
Rel
Hum
%
Delta-T
°C
Wind Press
QNH
hPa
Press
MSL
hPa
Rain since
9am
mm
Dir  Spd
km/h
Gust
km/h
Spd
kts
Gust
kts
26/11:30pm 22.5 - - - - NNW 9 13 5 7 1017.0 1017.0 -
26/11:00pm 22.6 - - - - NW 11 15 6 8 1017.2 1017.2 -
26/10:30pm 22.6 - - - - NNW 11 15 6 8 1017.1 1017.1 -
26/10:00pm 22.8 - - - - N 9 13 5 7 1016.9 1016.9 -
26/09:30pm 23.1 - - - - NNE 17 20 9 11 1016.7 1016.7 -
26/09:00pm 23.1 - - - - N 11 17 6 9 1016.4 1016.4 -
26/08:30pm 23.5 - - - - NE 19 24 10 13 1016.0 1016.0 -
26/08:00pm 23.5 - - - - NE 15 20 8 11 1015.5 1015.5 -
26/07:30pm 23.6 - - - - NE 15 19 8 10 1015.3 1015.3 -
26/07:00pm 23.6 - - - - NNE 13 17 7 9 1014.9 1014.9 -
26/06:30pm 23.6 - - - - NNE 13 17 7 9 1014.9 1014.9 -
26/06:00pm 23.6 - - - - NE 15 19 8 10 1014.5 1014.5 -
26/05:30pm 23.8 - - - - NE 13 19 7 10 1014.4 1014.4 -
26/05:00pm 23.9 - - - - NE 15 20 8 11 1014.2 1014.2 -
26/04:30pm 23.9 - - - - NE 15 19 8 10 1014.0 1014.0 -
26/04:00pm 23.9 - - - - NE 13 19 7 10 1014.1 1014.1 -
26/03:30pm 23.9 - - - - NE 13 19 7 10 1014.1 1014.1 -
26/03:00pm 24.0 - - - - NE 13 19 7 10 1014.3 1014.3 -
26/02:30pm 23.8 - - - - NE 13 20 7 11 1014.3 1014.3 -
26/02:00pm 23.7 - - - - NE 13 17 7 9 1014.4 1014.4 -
26/01:30pm 23.6 - - - - NE 11 17 6 9 1014.7 1014.7 -
26/01:00pm 23.3 - - - - NE 11 15 6 8 1015.0 1015.0 -
26/12:30pm 23.3 - - - - NE 9 13 5 7 1015.4 1015.4 -
26/12:00pm 22.9 - - - - ENE 7 11 4 6 1015.6 1015.6 -
26/11:30am 22.6 - - - - E 7 13 4 7 1015.6 1015.6 -
26/11:00am 22.2 - - - - E 7 9 4 5 1015.8 1015.8 -
26/10:30am 21.9 - - - - ESE 6 9 3 5 1015.8 1015.8 -
26/10:00am 22.1 - - - - ENE 6 6 3 3 1015.6 1015.6 -
26/09:30am 22.4 - - - - NNE 4 4 2 2 1015.1 1015.1 -
26/09:00am 21.4 - - - - W 6 7 3 4 1015.1 1015.1 -
26/08:30am 20.2 - - - - W 6 7 3 4 1014.8 1014.8 -
26/08:00am 19.5 - - - - W 6 9 3 5 1014.5 1014.5 -
26/07:30am 18.5 - - - - WSW 7 9 4 5 1014.3 1014.3 -
26/07:00am 18.5 - - - - WSW 6 6 3 3 1013.7 1013.7 -
26/06:30am 18.6 - - - - W 6 7 3 4 1013.6 1013.6 -
26/06:00am 18.5 - - - - SW 7 9 4 5 1013.3 1013.3 -
26/05:30am 18.7 - - - - W 6 7 3 4 1013.1 1013.1 -
26/05:00am 18.7 - - - - W 6 7 3 4 1012.9 1012.9 -
26/04:30am 18.8 - - - - WSW 6 9 3 5 1013.0 1013.0 -
26/04:00am 18.6 - - - - SW 6 9 3 5 1013.0 1013.0 -
26/03:30am 18.8 - - - - W 6 7 3 4 1013.1 1013.1 -
26/03:00am 19.1 - - - - WSW 6 7 3 4 1013.3 1013.3 -
26/02:30am 19.3 - - - - SSW 9 13 5 7 1013.5 1013.5 -

Other Formats:

Comma delimited format used in spreadsheet applications
http://www.bom.gov.au/fwo/IDN60801/IDN60801.95745.axf

JavaScript Object Notation format (JSON) in row-major order
http://www.bom.gov.au/fwo/IDN60801/IDN60801.95745.json